Terminal Aerodrome Forecast
Issued by NWS

Home | Current Version | Previous Version | Graphics & Text | Print | Product List | Glossary On
Versions: 1 2 3 4 5 6 7 8 9 10 11 12 13 14 15
093
FTUS43 KMPX 241735
TAFAXN
TAF
KAXN 241735Z 2418/2518 02014G22KT P6SM OVC150
     FM250600 33015G25KT P6SM SCT200
     FM251400 31010KT P6SM SCT250=

USA.gov is the U.S. government's official web portal to all federal, state and local government web resources and services.